sensor_id;sensor_type;location;lat;lon;timestamp;P1;durP1;ratioP1;P2;durP2;ratioP2
30327;SDS011;17133;52.418;13.398;2022-08-05T00:03:38;5.07;;;4.57;;
30327;SDS011;17133;52.418;13.398;2022-08-05T00:06:04;4.90;;;4.50;;
30327;SDS011;17133;52.418;13.398;2022-08-05T00:08:30;4.57;;;4.18;;
30327;SDS011;17133;52.418;13.398;2022-08-05T00:10:56;4.78;;;4.25;;
30327;SDS011;17133;52.418;13.398;2022-08-05T00:13:22;5.93;;;4.60;;
30327;SDS011;17133;52.418;13.398;2022-08-05T00:15:48;5.90;;;5.05;;
30327;SDS011;17133;52.418;13.398;2022-08-05T00:18:14;5.53;;;4.95;;
30327;SDS011;17133;52.418;13.398;2022-08-05T00:20:40;4.93;;;4.35;;
30327;SDS011;17133;52.418;13.398;2022-08-05T00:23:06;5.95;;;4.72;;
30327;SDS011;17133;52.418;13.398;2022-08-05T00:25:32;5.80;;;5.22;;
30327;SDS011;17133;52.418;13.398;2022-08-05T00:27:58;5.18;;;4.68;;
30327;SDS011;17133;52.418;13.398;2022-08-05T00:30:24;5.18;;;4.65;;
30327;SDS011;17133;52.418;13.398;2022-08-05T00:32:50;5.90;;;4.88;;
30327;SDS011;17133;52.418;13.398;2022-08-05T00:35:16;5.57;;;4.55;;
30327;SDS011;17133;52.418;13.398;2022-08-05T00:37:42;5.07;;;4.57;;
30327;SDS011;17133;52.418;13.398;2022-08-05T00:40:08;5.07;;;4.45;;
30327;SDS011;17133;52.418;13.398;2022-08-05T00:42:35;6.80;;;4.85;;
30327;SDS011;17133;52.418;13.398;2022-08-05T00:45:02;5.32;;;4.78;;
30327;SDS011;17133;52.418;13.398;2022-08-05T00:47:28;5.38;;;4.90;;
30327;SDS011;17133;52.418;13.398;2022-08-05T00:49:54;5.60;;;5.15;;
30327;SDS011;17133;52.418;13.398;2022-08-05T00:52:20;6.15;;;5.53;;
30327;SDS011;17133;52.418;13.398;2022-08-05T00:54:46;6.20;;;5.60;;
30327;SDS011;17133;52.418;13.398;2022-08-05T00:57:12;5.43;;;4.93;;
30327;SDS011;17133;52.418;13.398;2022-08-05T00:59:38;6.68;;;6.03;;
30327;SDS011;17133;52.418;13.398;2022-08-05T01:02:04;7.25;;;5.70;;
30327;SDS011;17133;52.418;13.398;2022-08-05T01:04:30;7.72;;;6.93;;
30327;SDS011;17133;52.418;13.398;2022-08-05T01:06:56;7.00;;;6.30;;
30327;SDS011;17133;52.418;13.398;2022-08-05T01:09:23;7.03;;;6.32;;
30327;SDS011;17133;52.418;13.398;2022-08-05T01:11:49;6.45;;;5.85;;
30327;SDS011;17133;52.418;13.398;2022-08-05T01:14:17;6.45;;;5.82;;
30327;SDS011;17133;52.418;13.398;2022-08-05T01:19:31;6.88;;;6.20;;
30327;SDS011;17133;52.418;13.398;2022-08-05T01:22:12;8.77;;;6.10;;
30327;SDS011;17133;52.418;13.398;2022-08-05T01:24:44;6.72;;;6.03;;
30327;SDS011;17133;52.418;13.398;2022-08-05T01:27:19;8.85;;;6.22;;
30327;SDS011;17133;52.418;13.398;2022-08-05T01:29:49;8.25;;;6.45;;
30327;SDS011;17133;52.418;13.398;2022-08-05T01:32:17;6.68;;;5.97;;
30327;SDS011;17133;52.418;13.398;2022-08-05T01:35:20;6.32;;;5.72;;
30327;SDS011;17133;52.418;13.398;2022-08-05T01:40:04;6.95;;;5.47;;
30327;SDS011;17133;52.418;13.398;2022-08-05T01:42:31;8.43;;;7.53;;
30327;SDS011;17133;52.418;13.398;2022-08-05T01:44:58;9.02;;;7.07;;
30327;SDS011;17133;52.418;13.398;2022-08-05T01:47:25;11.65;;;8.88;;
30327;SDS011;17133;52.418;13.398;2022-08-05T01:49:51;10.20;;;9.07;;
30327;SDS011;17133;52.418;13.398;2022-08-05T01:52:17;9.32;;;8.43;;
30327;SDS011;17133;52.418;13.398;2022-08-05T01:54:48;9.93;;;8.93;;
30327;SDS011;17133;52.418;13.398;2022-08-05T01:57:18;13.90;;;10.75;;
30327;SDS011;17133;52.418;13.398;2022-08-05T01:59:45;12.82;;;11.18;;
30327;SDS011;17133;52.418;13.398;2022-08-05T02:02:12;12.25;;;10.90;;
30327;SDS011;17133;52.418;13.398;2022-08-05T02:04:38;12.73;;;10.93;;
30327;SDS011;17133;52.418;13.398;2022-08-05T02:07:05;14.82;;;11.02;;
30327;SDS011;17133;52.418;13.398;2022-08-05T02:09:31;11.93;;;10.27;;
30327;SDS011;17133;52.418;13.398;2022-08-05T02:14:27;10.95;;;8.68;;
30327;SDS011;17133;52.418;13.398;2022-08-05T02:16:55;11.88;;;9.82;;
30327;SDS011;17133;52.418;13.398;2022-08-05T02:21:53;11.25;;;8.63;;
30327;SDS011;17133;52.418;13.398;2022-08-05T02:24:23;10.27;;;9.05;;
30327;SDS011;17133;52.418;13.398;2022-08-05T02:26:53;12.43;;;8.80;;
30327;SDS011;17133;52.418;13.398;2022-08-05T02:29:21;9.80;;;8.80;;
30327;SDS011;17133;52.418;13.398;2022-08-05T02:31:48;9.75;;;7.80;;
30327;SDS011;17133;52.418;13.398;2022-08-05T02:34:15;10.32;;;8.45;;
30327;SDS011;17133;52.418;13.398;2022-08-05T02:36:42;9.95;;;7.63;;
30327;SDS011;17133;52.418;13.398;2022-08-05T02:39:11;8.35;;;7.40;;
30327;SDS011;17133;52.418;13.398;2022-08-05T02:41:37;8.07;;;7.20;;
30327;SDS011;17133;52.418;13.398;2022-08-05T02:44:07;9.75;;;8.07;;
30327;SDS011;17133;52.418;13.398;2022-08-05T02:46:37;10.80;;;7.53;;
30327;SDS011;17133;52.418;13.398;2022-08-05T02:49:04;11.82;;;7.72;;
30327;SDS011;17133;52.418;13.398;2022-08-05T02:51:30;9.57;;;7.32;;
30327;SDS011;17133;52.418;13.398;2022-08-05T02:53:57;8.30;;;7.18;;
30327;SDS011;17133;52.418;13.398;2022-08-05T02:56:23;8.35;;;7.25;;
30327;SDS011;17133;52.418;13.398;2022-08-05T02:58:51;9.02;;;7.55;;
30327;SDS011;17133;52.418;13.398;2022-08-05T03:01:18;8.48;;;7.68;;
30327;SDS011;17133;52.418;13.398;2022-08-05T03:03:46;8.82;;;6.88;;
30327;SDS011;17133;52.418;13.398;2022-08-05T03:06:14;9.18;;;6.60;;
30327;SDS011;17133;52.418;13.398;2022-08-05T03:08:40;9.15;;;7.05;;
30327;SDS011;17133;52.418;13.398;2022-08-05T03:11:19;7.20;;;6.50;;
30327;SDS011;17133;52.418;13.398;2022-08-05T03:13:45;11.27;;;6.78;;
30327;SDS011;17133;52.418;13.398;2022-08-05T03:16:12;9.68;;;7.10;;
30327;SDS011;17133;52.418;13.398;2022-08-05T03:18:38;8.23;;;6.82;;
30327;SDS011;17133;52.418;13.398;2022-08-05T03:21:04;9.85;;;7.28;;
30327;SDS011;17133;52.418;13.398;2022-08-05T03:23:31;9.85;;;7.13;;
30327;SDS011;17133;52.418;13.398;2022-08-05T03:25:57;9.00;;;6.68;;
30327;SDS011;17133;52.418;13.398;2022-08-05T03:28:24;8.95;;;6.50;;
30327;SDS011;17133;52.418;13.398;2022-08-05T03:30:50;7.63;;;6.32;;
30327;SDS011;17133;52.418;13.398;2022-08-05T03:33:16;7.90;;;6.60;;
30327;SDS011;17133;52.418;13.398;2022-08-05T03:35:45;8.48;;;6.88;;
30327;SDS011;17133;52.418;13.398;2022-08-05T03:38:12;7.22;;;6.45;;
30327;SDS011;17133;52.418;13.398;2022-08-05T03:40:39;13.65;;;6.97;;
30327;SDS011;17133;52.418;13.398;2022-08-05T03:43:05;13.55;;;7.20;;
30327;SDS011;17133;52.418;13.398;2022-08-05T03:45:31;9.82;;;6.13;;
30327;SDS011;17133;52.418;13.398;2022-08-05T03:47:57;7.00;;;6.28;;
30327;SDS011;17133;52.418;13.398;2022-08-05T03:50:23;7.90;;;6.55;;
30327;SDS011;17133;52.418;13.398;2022-08-05T03:52:51;7.78;;;6.30;;
30327;SDS011;17133;52.418;13.398;2022-08-05T03:55:26;6.45;;;5.85;;
30327;SDS011;17133;52.418;13.398;2022-08-05T03:57:57;8.07;;;6.30;;
30327;SDS011;17133;52.418;13.398;2022-08-05T04:00:23;8.63;;;7.05;;
30327;SDS011;17133;52.418;13.398;2022-08-05T04:02:50;9.32;;;6.85;;
30327;SDS011;17133;52.418;13.398;2022-08-05T04:05:17;7.65;;;6.32;;
30327;SDS011;17133;52.418;13.398;2022-08-05T04:07:44;9.23;;;6.47;;
30327;SDS011;17133;52.418;13.398;2022-08-05T04:10:10;7.10;;;6.38;;
30327;SDS011;17133;52.418;13.398;2022-08-05T04:12:36;7.25;;;6.45;;
30327;SDS011;17133;52.418;13.398;2022-08-05T04:15:02;7.03;;;5.97;;
30327;SDS011;17133;52.418;13.398;2022-08-05T04:17:28;11.95;;;6.30;;
30327;SDS011;17133;52.418;13.398;2022-08-05T04:19:54;7.38;;;6.25;;
30327;SDS011;17133;52.418;13.398;2022-08-05T04:22:20;8.75;;;6.15;;
30327;SDS011;17133;52.418;13.398;2022-08-05T04:24:46;10.00;;;5.78;;
30327;SDS011;17133;52.418;13.398;2022-08-05T04:27:12;6.18;;;5.53;;
30327;SDS011;17133;52.418;13.398;2022-08-05T04:29:38;7.22;;;6.30;;
30327;SDS011;17133;52.418;13.398;2022-08-05T04:32:05;8.70;;;6.47;;
30327;SDS011;17133;52.418;13.398;2022-08-05T04:34:31;8.73;;;6.97;;
30327;SDS011;17133;52.418;13.398;2022-08-05T04:36:57;8.48;;;6.28;;
30327;SDS011;17133;52.418;13.398;2022-08-05T04:39:23;6.90;;;5.68;;
30327;SDS011;17133;52.418;13.398;2022-08-05T04:41:50;6.75;;;5.95;;
30327;SDS011;17133;52.418;13.398;2022-08-05T04:44:16;6.63;;;6.03;;
30327;SDS011;17133;52.418;13.398;2022-08-05T04:46:42;6.75;;;6.05;;
30327;SDS011;17133;52.418;13.398;2022-08-05T04:49:08;7.22;;;5.47;;
30327;SDS011;17133;52.418;13.398;2022-08-05T04:51:34;6.43;;;5.90;;
30327;SDS011;17133;52.418;13.398;2022-08-05T04:54:00;7.25;;;6.57;;
30327;SDS011;17133;52.418;13.398;2022-08-05T04:56:26;7.88;;;6.13;;
30327;SDS011;17133;52.418;13.398;2022-08-05T04:58:52;9.70;;;6.40;;
30327;SDS011;17133;52.418;13.398;2022-08-05T05:01:18;10.13;;;6.30;;
30327;SDS011;17133;52.418;13.398;2022-08-05T05:03:44;9.20;;;6.07;;
30327;SDS011;17133;52.418;13.398;2022-08-05T05:06:10;6.93;;;6.22;;
30327;SDS011;17133;52.418;13.398;2022-08-05T05:08:37;8.15;;;6.03;;
30327;SDS011;17133;52.418;13.398;2022-08-05T05:11:03;6.82;;;6.05;;
30327;SDS011;17133;52.418;13.398;2022-08-05T05:13:29;8.93;;;6.20;;
30327;SDS011;17133;52.418;13.398;2022-08-05T05:15:55;7.10;;;6.40;;
30327;SDS011;17133;52.418;13.398;2022-08-05T05:18:21;7.78;;;5.68;;
30327;SDS011;17133;52.418;13.398;2022-08-05T05:20:47;7.22;;;5.97;;
30327;SDS011;17133;52.418;13.398;2022-08-05T05:23:13;7.85;;;5.80;;
30327;SDS011;17133;52.418;13.398;2022-08-05T05:25:39;9.60;;;5.68;;
30327;SDS011;17133;52.418;13.398;2022-08-05T05:28:05;6.18;;;5.60;;
30327;SDS011;17133;52.418;13.398;2022-08-05T05:30:32;7.20;;;5.80;;
30327;SDS011;17133;52.418;13.398;2022-08-05T05:32:58;7.93;;;5.80;;
30327;SDS011;17133;52.418;13.398;2022-08-05T05:35:25;10.88;;;6.85;;
30327;SDS011;17133;52.418;13.398;2022-08-05T05:37:55;8.30;;;6.82;;
30327;SDS011;17133;52.418;13.398;2022-08-05T05:40:22;6.93;;;6.32;;
30327;SDS011;17133;52.418;13.398;2022-08-05T05:42:48;14.48;;;5.75;;
30327;SDS011;17133;52.418;13.398;2022-08-05T05:45:15;10.50;;;6.05;;
30327;SDS011;17133;52.418;13.398;2022-08-05T05:47:41;7.28;;;5.95;;
30327;SDS011;17133;52.418;13.398;2022-08-05T05:50:07;6.65;;;5.53;;
30327;SDS011;17133;52.418;13.398;2022-08-05T05:52:34;5.95;;;5.38;;
30327;SDS011;17133;52.418;13.398;2022-08-05T05:55:04;7.95;;;5.70;;
30327;SDS011;17133;52.418;13.398;2022-08-05T05:57:33;8.75;;;6.05;;
30327;SDS011;17133;52.418;13.398;2022-08-05T05:59:59;7.75;;;5.65;;
30327;SDS011;17133;52.418;13.398;2022-08-05T06:02:24;6.90;;;5.63;;
30327;SDS011;17133;52.418;13.398;2022-08-05T06:04:50;8.00;;;6.00;;
30327;SDS011;17133;52.418;13.398;2022-08-05T06:07:16;9.25;;;6.28;;
30327;SDS011;17133;52.418;13.398;2022-08-05T06:09:41;9.93;;;6.43;;
30327;SDS011;17133;52.418;13.398;2022-08-05T06:12:07;10.07;;;6.30;;
30327;SDS011;17133;52.418;13.398;2022-08-05T06:14:33;10.80;;;7.00;;
30327;SDS011;17133;52.418;13.398;2022-08-05T06:16:58;9.15;;;6.15;;
30327;SDS011;17133;52.418;13.398;2022-08-05T06:19:25;7.82;;;6.47;;
30327;SDS011;17133;52.418;13.398;2022-08-05T06:21:51;6.63;;;5.93;;
30327;SDS011;17133;52.418;13.398;2022-08-05T06:24:17;10.35;;;5.90;;
30327;SDS011;17133;52.418;13.398;2022-08-05T06:26:43;10.02;;;5.75;;
30327;SDS011;17133;52.418;13.398;2022-08-05T06:29:09;9.73;;;5.68;;
30327;SDS011;17133;52.418;13.398;2022-08-05T06:31:35;7.30;;;5.47;;
30327;SDS011;17133;52.418;13.398;2022-08-05T06:34:01;7.90;;;5.47;;
30327;SDS011;17133;52.418;13.398;2022-08-05T06:36:29;5.20;;;4.40;;
30327;SDS011;17133;52.418;13.398;2022-08-05T06:38:54;5.97;;;4.82;;
30327;SDS011;17133;52.418;13.398;2022-08-05T06:41:20;5.30;;;4.80;;
30327;SDS011;17133;52.418;13.398;2022-08-05T06:43:47;7.55;;;4.15;;
30327;SDS011;17133;52.418;13.398;2022-08-05T06:46:13;8.77;;;4.40;;
30327;SDS011;17133;52.418;13.398;2022-08-05T06:48:39;6.95;;;4.20;;
30327;SDS011;17133;52.418;13.398;2022-08-05T06:51:05;9.18;;;4.50;;
30327;SDS011;17133;52.418;13.398;2022-08-05T06:53:31;6.00;;;4.45;;
30327;SDS011;17133;52.418;13.398;2022-08-05T06:55:57;7.30;;;4.40;;
30327;SDS011;17133;52.418;13.398;2022-08-05T06:58:24;7.22;;;4.32;;
30327;SDS011;17133;52.418;13.398;2022-08-05T07:00:53;5.22;;;4.25;;
30327;SDS011;17133;52.418;13.398;2022-08-05T07:03:21;6.85;;;3.92;;
30327;SDS011;17133;52.418;13.398;2022-08-05T07:05:47;8.43;;;4.35;;
30327;SDS011;17133;52.418;13.398;2022-08-05T07:08:12;5.43;;;3.95;;
30327;SDS011;17133;52.418;13.398;2022-08-05T07:10:38;10.18;;;3.90;;
30327;SDS011;17133;52.418;13.398;2022-08-05T07:13:04;10.20;;;3.80;;
30327;SDS011;17133;52.418;13.398;2022-08-05T07:15:48;10.13;;;3.75;;
30327;SDS011;17133;52.418;13.398;2022-08-05T07:18:32;6.90;;;3.85;;
30327;SDS011;17133;52.418;13.398;2022-08-05T07:20:58;5.28;;;3.60;;
30327;SDS011;17133;52.418;13.398;2022-08-05T07:23:23;6.70;;;3.65;;
30327;SDS011;17133;52.418;13.398;2022-08-05T07:25:49;9.77;;;3.78;;
30327;SDS011;17133;52.418;13.398;2022-08-05T07:28:14;8.23;;;3.80;;
30327;SDS011;17133;52.418;13.398;2022-08-05T07:30:40;6.82;;;3.83;;
30327;SDS011;17133;52.418;13.398;2022-08-05T07:33:09;5.50;;;3.65;;
30327;SDS011;17133;52.418;13.398;2022-08-05T07:35:39;7.72;;;3.65;;
30327;SDS011;17133;52.418;13.398;2022-08-05T07:38:05;7.07;;;4.07;;
30327;SDS011;17133;52.418;13.398;2022-08-05T07:40:30;8.18;;;3.97;;
30327;SDS011;17133;52.418;13.398;2022-08-05T07:42:56;6.82;;;3.85;;
30327;SDS011;17133;52.418;13.398;2022-08-05T07:45:22;7.22;;;3.45;;
30327;SDS011;17133;52.418;13.398;2022-08-05T07:47:47;7.32;;;3.40;;
30327;SDS011;17133;52.418;13.398;2022-08-05T07:50:13;6.32;;;3.75;;
30327;SDS011;17133;52.418;13.398;2022-08-05T07:52:40;5.75;;;3.40;;
30327;SDS011;17133;52.418;13.398;2022-08-05T07:55:07;5.13;;;3.25;;
30327;SDS011;17133;52.418;13.398;2022-08-05T07:57:34;9.13;;;3.90;;
30327;SDS011;17133;52.418;13.398;2022-08-05T08:00:00;5.72;;;3.20;;
30327;SDS011;17133;52.418;13.398;2022-08-05T08:02:26;9.45;;;3.63;;
30327;SDS011;17133;52.418;13.398;2022-08-05T08:04:53;4.10;;;3.47;;
30327;SDS011;17133;52.418;13.398;2022-08-05T08:07:20;6.35;;;3.70;;
30327;SDS011;17133;52.418;13.398;2022-08-05T08:09:46;5.50;;;3.42;;
30327;SDS011;17133;52.418;13.398;2022-08-05T08:12:12;7.38;;;4.22;;
30327;SDS011;17133;52.418;13.398;2022-08-05T08:14:38;4.60;;;3.78;;
30327;SDS011;17133;52.418;13.398;2022-08-05T08:17:05;6.10;;;3.92;;
30327;SDS011;17133;52.418;13.398;2022-08-05T08:19:35;8.00;;;3.35;;
30327;SDS011;17133;52.418;13.398;2022-08-05T08:22:01;7.60;;;3.80;;
30327;SDS011;17133;52.418;13.398;2022-08-05T08:24:27;5.90;;;3.95;;
30327;SDS011;17133;52.418;13.398;2022-08-05T08:26:54;4.93;;;3.83;;
30327;SDS011;17133;52.418;13.398;2022-08-05T08:29:19;6.50;;;3.13;;
30327;SDS011;17133;52.418;13.398;2022-08-05T08:31:45;6.85;;;3.63;;
30327;SDS011;17133;52.418;13.398;2022-08-05T08:34:11;6.88;;;3.28;;
30327;SDS011;17133;52.418;13.398;2022-08-05T08:36:37;4.93;;;3.58;;
30327;SDS011;17133;52.418;13.398;2022-08-05T08:39:03;3.63;;;2.92;;
30327;SDS011;17133;52.418;13.398;2022-08-05T08:41:29;4.35;;;3.30;;
30327;SDS011;17133;52.418;13.398;2022-08-05T08:46:26;5.85;;;3.72;;
30327;SDS011;17133;52.418;13.398;2022-08-05T08:48:55;6.80;;;3.17;;
30327;SDS011;17133;52.418;13.398;2022-08-05T08:51:21;6.05;;;3.10;;
30327;SDS011;17133;52.418;13.398;2022-08-05T08:53:50;4.30;;;3.08;;
30327;SDS011;17133;52.418;13.398;2022-08-05T08:56:15;7.03;;;3.75;;
30327;SDS011;17133;52.418;13.398;2022-08-05T08:58:41;4.90;;;3.20;;
30327;SDS011;17133;52.418;13.398;2022-08-05T09:01:07;5.18;;;3.40;;
30327;SDS011;17133;52.418;13.398;2022-08-05T09:03:34;8.40;;;3.80;;
30327;SDS011;17133;52.418;13.398;2022-08-05T09:06:00;7.70;;;3.63;;
30327;SDS011;17133;52.418;13.398;2022-08-05T09:08:25;5.10;;;3.42;;
30327;SDS011;17133;52.418;13.398;2022-08-05T09:10:51;6.95;;;3.38;;
30327;SDS011;17133;52.418;13.398;2022-08-05T09:13:17;5.22;;;3.50;;
30327;SDS011;17133;52.418;13.398;2022-08-05T09:15:44;4.63;;;3.60;;
30327;SDS011;17133;52.418;13.398;2022-08-05T09:18:10;4.65;;;3.17;;
30327;SDS011;17133;52.418;13.398;2022-08-05T09:20:36;7.47;;;3.28;;
30327;SDS011;17133;52.418;13.398;2022-08-05T09:23:15;5.43;;;3.35;;
30327;SDS011;17133;52.418;13.398;2022-08-05T09:25:43;6.57;;;3.13;;
30327;SDS011;17133;52.418;13.398;2022-08-05T09:28:10;5.63;;;3.33;;
30327;SDS011;17133;52.418;13.398;2022-08-05T09:30:36;3.83;;;3.35;;
30327;SDS011;17133;52.418;13.398;2022-08-05T09:33:02;6.57;;;3.35;;
30327;SDS011;17133;52.418;13.398;2022-08-05T09:35:28;4.68;;;3.22;;
30327;SDS011;17133;52.418;13.398;2022-08-05T09:37:54;5.70;;;3.42;;
30327;SDS011;17133;52.418;13.398;2022-08-05T09:42:58;4.97;;;3.22;;
30327;SDS011;17133;52.418;13.398;2022-08-05T09:45:40;3.83;;;2.60;;
30327;SDS011;17133;52.418;13.398;2022-08-05T09:50:55;4.85;;;3.28;;
30327;SDS011;17133;52.418;13.398;2022-08-05T09:53:26;3.63;;;3.20;;
30327;SDS011;17133;52.418;13.398;2022-08-05T09:55:55;4.05;;;3.08;;
30327;SDS011;17133;52.418;13.398;2022-08-05T09:58:23;5.25;;;3.53;;
30327;SDS011;17133;52.418;13.398;2022-08-05T10:00:51;5.47;;;2.75;;
30327;SDS011;17133;52.418;13.398;2022-08-05T10:03:27;4.68;;;3.13;;
30327;SDS011;17133;52.418;13.398;2022-08-05T10:06:07;3.35;;;2.90;;
30327;SDS011;17133;52.418;13.398;2022-08-05T10:08:37;3.80;;;2.78;;
30327;SDS011;17133;52.418;13.398;2022-08-05T10:11:04;4.15;;;2.92;;
30327;SDS011;17133;52.418;13.398;2022-08-05T10:13:41;5.15;;;3.25;;
30327;SDS011;17133;52.418;13.398;2022-08-05T10:16:26;8.13;;;3.83;;
30327;SDS011;17133;52.418;13.398;2022-08-05T10:18:59;4.80;;;3.03;;
30327;SDS011;17133;52.418;13.398;2022-08-05T10:21:28;4.43;;;2.95;;
30327;SDS011;17133;52.418;13.398;2022-08-05T10:23:54;4.25;;;3.08;;
30327;SDS011;17133;52.418;13.398;2022-08-05T10:26:23;7.15;;;4.05;;
30327;SDS011;17133;52.418;13.398;2022-08-05T10:28:48;4.03;;;3.15;;
30327;SDS011;17133;52.418;13.398;2022-08-05T10:31:15;3.75;;;3.17;;
30327;SDS011;17133;52.418;13.398;2022-08-05T10:33:41;4.70;;;3.13;;
30327;SDS011;17133;52.418;13.398;2022-08-05T10:36:11;3.50;;;2.88;;
30327;SDS011;17133;52.418;13.398;2022-08-05T10:38:37;4.35;;;3.05;;
30327;SDS011;17133;52.418;13.398;2022-08-05T10:41:12;4.85;;;3.42;;
30327;SDS011;17133;52.418;13.398;2022-08-05T10:46:42;4.93;;;3.83;;
30327;SDS011;17133;52.418;13.398;2022-08-05T10:49:08;7.28;;;4.28;;
30327;SDS011;17133;52.418;13.398;2022-08-05T10:54:46;5.22;;;3.97;;
30327;SDS011;17133;52.418;13.398;2022-08-05T10:57:18;5.70;;;4.30;;
30327;SDS011;17133;52.418;13.398;2022-08-05T11:00:02;6.80;;;4.80;;
30327;SDS011;17133;52.418;13.398;2022-08-05T11:05:34;5.57;;;4.22;;
30327;SDS011;17133;52.418;13.398;2022-08-05T11:08:02;10.85;;;5.70;;
30327;SDS011;17133;52.418;13.398;2022-08-05T11:12:56;7.65;;;4.65;;
30327;SDS011;17133;52.418;13.398;2022-08-05T11:15:33;6.38;;;4.55;;
30327;SDS011;17133;52.418;13.398;2022-08-05T11:28:49;7.63;;;5.23;;
30327;SDS011;17133;52.418;13.398;2022-08-05T11:31:17;4.22;;;3.00;;
30327;SDS011;17133;52.418;13.398;2022-08-05T11:36:14;5.53;;;2.90;;
30327;SDS011;17133;52.418;13.398;2022-08-05T11:43:36;4.50;;;2.80;;
30327;SDS011;17133;52.418;13.398;2022-08-05T11:46:07;4.75;;;2.70;;
30327;SDS011;17133;52.418;13.398;2022-08-05T11:48:33;4.28;;;2.47;;
30327;SDS011;17133;52.418;13.398;2022-08-05T11:50:59;4.22;;;2.60;;
30327;SDS011;17133;52.418;13.398;2022-08-05T11:53:25;5.63;;;2.88;;
30327;SDS011;17133;52.418;13.398;2022-08-05T11:56:00;6.75;;;3.80;;
30327;SDS011;17133;52.418;13.398;2022-08-05T11:58:27;6.57;;;3.47;;
30327;SDS011;17133;52.418;13.398;2022-08-05T12:01:10;5.32;;;3.92;;
30327;SDS011;17133;52.418;13.398;2022-08-05T12:06:15;7.55;;;5.43;;
30327;SDS011;17133;52.418;13.398;2022-08-05T12:08:43;7.30;;;6.50;;
30327;SDS011;17133;52.418;13.398;2022-08-05T12:11:14;11.00;;;7.32;;
30327;SDS011;17133;52.418;13.398;2022-08-05T12:13:55;10.18;;;7.10;;
30327;SDS011;17133;52.418;13.398;2022-08-05T12:16:27;11.88;;;8.55;;
30327;SDS011;17133;52.418;13.398;2022-08-05T12:18:57;16.00;;;9.10;;
30327;SDS011;17133;52.418;13.398;2022-08-05T12:21:26;13.18;;;9.80;;
30327;SDS011;17133;52.418;13.398;2022-08-05T12:23:53;11.60;;;8.93;;
30327;SDS011;17133;52.418;13.398;2022-08-05T12:26:31;12.77;;;10.07;;
30327;SDS011;17133;52.418;13.398;2022-08-05T12:29:03;12.98;;;9.55;;
30327;SDS011;17133;52.418;13.398;2022-08-05T12:31:30;9.00;;;7.33;;
30327;SDS011;17133;52.418;13.398;2022-08-05T12:33:57;6.28;;;4.78;;
30327;SDS011;17133;52.418;13.398;2022-08-05T12:36:24;4.35;;;3.95;;
30327;SDS011;17133;52.418;13.398;2022-08-05T12:38:50;5.15;;;4.20;;
30327;SDS011;17133;52.418;13.398;2022-08-05T12:41:16;5.65;;;4.63;;
30327;SDS011;17133;52.418;13.398;2022-08-05T12:43:55;10.70;;;6.35;;
30327;SDS011;17133;52.418;13.398;2022-08-05T12:46:24;8.98;;;5.88;;
30327;SDS011;17133;52.418;13.398;2022-08-05T12:48:55;7.18;;;5.10;;
30327;SDS011;17133;52.418;13.398;2022-08-05T12:51:25;6.10;;;4.45;;
30327;SDS011;17133;52.418;13.398;2022-08-05T12:53:51;3.17;;;2.78;;
30327;SDS011;17133;52.418;13.398;2022-08-05T12:56:23;3.05;;;2.30;;
30327;SDS011;17133;52.418;13.398;2022-08-05T13:01:34;3.20;;;2.25;;
30327;SDS011;17133;52.418;13.398;2022-08-05T13:04:04;3.33;;;2.40;;
30327;SDS011;17133;52.418;13.398;2022-08-05T13:06:30;3.08;;;2.35;;
30327;SDS011;17133;52.418;13.398;2022-08-05T13:08:56;2.55;;;2.35;;
30327;SDS011;17133;52.418;13.398;2022-08-05T13:11:22;2.85;;;2.30;;
30327;SDS011;17133;52.418;13.398;2022-08-05T13:13:55;2.90;;;2.55;;
30327;SDS011;17133;52.418;13.398;2022-08-05T13:16:21;3.38;;;2.33;;
30327;SDS011;17133;52.418;13.398;2022-08-05T13:18:54;2.67;;;2.47;;
30327;SDS011;17133;52.418;13.398;2022-08-05T13:21:20;2.95;;;2.55;;
30327;SDS011;17133;52.418;13.398;2022-08-05T13:23:46;2.83;;;2.28;;
30327;SDS011;17133;52.418;13.398;2022-08-05T13:26:12;3.70;;;2.45;;
30327;SDS011;17133;52.418;13.398;2022-08-05T13:28:38;4.25;;;2.47;;
30327;SDS011;17133;52.418;13.398;2022-08-05T13:31:04;2.65;;;2.40;;
30327;SDS011;17133;52.418;13.398;2022-08-05T13:33:30;4.40;;;2.95;;
30327;SDS011;17133;52.418;13.398;2022-08-05T13:35:56;4.22;;;3.03;;
30327;SDS011;17133;52.418;13.398;2022-08-05T13:38:22;4.82;;;3.22;;
30327;SDS011;17133;52.418;13.398;2022-08-05T13:40:48;3.70;;;2.92;;
30327;SDS011;17133;52.418;13.398;2022-08-05T13:43:14;3.17;;;2.53;;
30327;SDS011;17133;52.418;13.398;2022-08-05T13:45:41;5.15;;;2.83;;
30327;SDS011;17133;52.418;13.398;2022-08-05T13:48:07;3.53;;;2.75;;
30327;SDS011;17133;52.418;13.398;2022-08-05T13:50:33;4.50;;;3.03;;
30327;SDS011;17133;52.418;13.398;2022-08-05T13:53:00;3.58;;;3.10;;
30327;SDS011;17133;52.418;13.398;2022-08-05T13:55:26;5.00;;;3.03;;
30327;SDS011;17133;52.418;13.398;2022-08-05T13:57:51;3.35;;;2.78;;
30327;SDS011;17133;52.418;13.398;2022-08-05T14:00:20;3.90;;;2.92;;
30327;SDS011;17133;52.418;13.398;2022-08-05T14:02:46;3.72;;;3.15;;
30327;SDS011;17133;52.418;13.398;2022-08-05T14:05:11;4.18;;;2.85;;
30327;SDS011;17133;52.418;13.398;2022-08-05T14:07:40;4.65;;;3.10;;
30327;SDS011;17133;52.418;13.398;2022-08-05T14:10:17;4.75;;;3.35;;
30327;SDS011;17133;52.418;13.398;2022-08-05T14:12:44;3.45;;;2.85;;
30327;SDS011;17133;52.418;13.398;2022-08-05T14:15:10;4.40;;;3.03;;
30327;SDS011;17133;52.418;13.398;2022-08-05T14:17:36;4.30;;;2.83;;
30327;SDS011;17133;52.418;13.398;2022-08-05T14:20:03;3.85;;;3.10;;
30327;SDS011;17133;52.418;13.398;2022-08-05T14:22:30;3.28;;;2.63;;
30327;SDS011;17133;52.418;13.398;2022-08-05T14:24:56;3.53;;;2.80;;
30327;SDS011;17133;52.418;13.398;2022-08-05T14:27:21;3.85;;;2.67;;
30327;SDS011;17133;52.418;13.398;2022-08-05T14:29:47;4.38;;;2.97;;
30327;SDS011;17133;52.418;13.398;2022-08-05T14:32:12;3.45;;;2.78;;
30327;SDS011;17133;52.418;13.398;2022-08-05T14:34:38;3.20;;;2.78;;
30327;SDS011;17133;52.418;13.398;2022-08-05T14:37:04;6.90;;;3.33;;
30327;SDS011;17133;52.418;13.398;2022-08-05T14:39:30;3.97;;;3.53;;
30327;SDS011;17133;52.418;13.398;2022-08-05T14:41:57;4.78;;;3.05;;
30327;SDS011;17133;52.418;13.398;2022-08-05T14:44:23;3.63;;;2.50;;
30327;SDS011;17133;52.418;13.398;2022-08-05T14:46:49;6.38;;;3.50;;
30327;SDS011;17133;52.418;13.398;2022-08-05T14:49:15;5.53;;;3.60;;
30327;SDS011;17133;52.418;13.398;2022-08-05T14:51:42;3.92;;;2.83;;
30327;SDS011;17133;52.418;13.398;2022-08-05T14:54:08;6.22;;;3.50;;
30327;SDS011;17133;52.418;13.398;2022-08-05T14:56:35;5.72;;;3.88;;
30327;SDS011;17133;52.418;13.398;2022-08-05T14:59:01;7.18;;;3.10;;
30327;SDS011;17133;52.418;13.398;2022-08-05T15:01:26;3.92;;;3.38;;
30327;SDS011;17133;52.418;13.398;2022-08-05T15:03:52;5.05;;;3.83;;
30327;SDS011;17133;52.418;13.398;2022-08-05T15:06:18;5.90;;;3.75;;
30327;SDS011;17133;52.418;13.398;2022-08-05T15:08:44;6.28;;;3.90;;
30327;SDS011;17133;52.418;13.398;2022-08-05T15:11:10;4.82;;;3.65;;
30327;SDS011;17133;52.418;13.398;2022-08-05T15:13:35;4.45;;;3.33;;
30327;SDS011;17133;52.418;13.398;2022-08-05T15:16:01;5.50;;;3.92;;
30327;SDS011;17133;52.418;13.398;2022-08-05T15:18:27;6.20;;;4.10;;
30327;SDS011;17133;52.418;13.398;2022-08-05T15:20:53;5.57;;;3.80;;
30327;SDS011;17133;52.418;13.398;2022-08-05T15:23:18;5.63;;;3.88;;
30327;SDS011;17133;52.418;13.398;2022-08-05T15:25:44;6.20;;;4.15;;
30327;SDS011;17133;52.418;13.398;2022-08-05T15:28:11;5.53;;;4.28;;
30327;SDS011;17133;52.418;13.398;2022-08-05T15:30:37;5.63;;;4.15;;